Ryoei Maru — JL6703 — position and weather

sailwx.info

Track history (hours):
 
Tides and Currents Weather Stations Pressure Air Temp Water Temp Dewpoint Dewpoint Depression Visibility Wind Speed Wind Dir Waves Ship Positions

Ryoei Maru

Last reported at 2016-Jul-22 19:32 UTC. Time now 2016-Jul-23 16:58 UTC.
Position N 35°41' E 140°57'.

Length 95 m; draft 5 m.

Type: Cargo ship. MMSI: 431501749.

Date/timePositionNaut miles runAvg speedWind from/ knotsBaromVisibWave heightAir tempDewpointWater temp
2016-Jul-22 19:32N 35°41' E 140°57'1211.2
2016-Jul-22 18:29N 35°31' E 140°49'1112.3
2016-Jul-22 17:33N 35°22' E 140°40'1212.3
2016-Jul-22 16:33N 35°12' E 140°32'1211.9
2016-Jul-22 15:32N 35°03' E 140°22'1212.2
2016-Jul-22 14:33N 34°56' E 140°09'1812.3
2016-Jul-22 13:07N 34°48' E 139°51'24610.8
2016-Jul-21 14:16N 34°01' E 134°58'1013.2
2016-Jul-21 13:33N 34°11' E 134°59'1211.6
2016-Jul-21 12:30N 34°23' E 135°01'1212.9
2016-Jul-21 11:33N 34°31' E 135°12'1312.6
2016-Jul-21 10:33N 34°37' E 135°25'1 0.9
2016-Jul-21 09:31N 34°37' E 135°26'0 0.0
2016-Jul-21 08:19N 34°37' E 135°26'0 0.0
2016-Jul-21 07:25N 34°37' E 135°26'0 0.0
2016-Jul-21 06:25N 34°37' E 135°26'0 0.0
2016-Jul-21 05:31N 34°37' E 135°26'0 0.0
2016-Jul-21 04:31N 34°37' E 135°26'0 0.0
2016-Jul-21 03:31N 34°37' E 135°26'0 0.0
2016-Jul-21 02:31N 34°37' E 135°26'0 0.0
2016-Jul-21 00:31N 34°37' E 135°26'0 0.0
2016-Jul-20 23:19N 34°37' E 135°26'0 0.1
2016-Jul-20 22:25N 34°37' E 135°26'3 3.8
2016-Jul-20 21:33N 34°37' E 135°22'3 3.2
2016-Jul-20 20:32N 34°35' E 135°18'0 0.0
2016-Jul-20 19:32N 34°35' E 135°18'0 0.0
2016-Jul-20 18:32N 34°35' E 135°18'0 0.0
2016-Jul-20 17:26N 34°35' E 135°18'0 0.0
2016-Jul-20 16:32N 34°35' E 135°18'6 6.0
2016-Jul-20 15:33N 34°31' E 135°14'1211.8
2016-Jul-20 14:33N 34°22' E 135°04'1211.3
2016-Jul-20 13:31N 34°11' E 135°00'18010.4
2016-Jul-19 20:16N 34°32' E 138°36'4013.6
2016-Jul-19 17:19N 34°38' E 139°25'1013.2
2016-Jul-19 16:32N 34°41' E 139°36'1312.8
2016-Jul-19 15:33N 34°48' E 139°49'1312.9
2016-Jul-19 14:33N 34°54' E 140°03'1312.8
2016-Jul-19 13:31N 35°01' E 140°17'1212.1
2016-Jul-19 12:32N 35°08' E 140°29'1211.5
2016-Jul-19 11:27N 35°18' E 140°37'  
2016-Jul-16 21:08N 36°14' E 140°60'913.7
2016-Jul-16 20:29N 36°05' E 140°59'1313.6
2016-Jul-16 19:31N 35°52' E 140°58'1313.3
2016-Jul-16 18:33N 35°39' E 140°55'1414.0
2016-Jul-16 17:33N 35°28' E 140°45'1414.2
2016-Jul-16 16:33N 35°16' E 140°36'1513.7
2016-Jul-16 15:26N 35°04' E 140°24'1113.1
2016-Jul-16 14:33N 34°58' E 140°12'1413.3
2016-Jul-16 13:32N 34°51' E 139°58'1413.2
2016-Jul-16 12:27N 34°45' E 139°42'23811.4
2016-Jul-15 15:33N 34°03' E 134°59'1414.0
2016-Jul-15 14:33N 34°17' E 134°58'1313.2
2016-Jul-15 13:33N 34°27' E 135°08'1313.2
2016-Jul-15 12:33N 34°36' E 135°20'5 4.9
2016-Jul-15 11:32N 34°37' E 135°26'0 0.0
2016-Jul-15 10:32N 34°37' E 135°26'0 0.0
2016-Jul-15 09:25N 34°37' E 135°26'0 0.1
2016-Jul-15 08:31N 34°37' E 135°26'0 0.0
2016-Jul-15 06:31N 34°37' E 135°26'0 0.0
2016-Jul-15 03:31N 34°37' E 135°26'0 0.0
2016-Jul-15 01:25N 34°37' E 135°26'0 0.0
2016-Jul-15 00:19N 34°37' E 135°26'0 0.0
2016-Jul-14 23:13N 34°37' E 135°26'0 0.0
2016-Jul-14 22:31N 34°37' E 135°26'5 5.2
2016-Jul-14 21:33N 34°35' E 135°20'1312.8
2016-Jul-14 20:33N 34°26' E 135°09'1312.7
2016-Jul-14 19:33N 34°16' E 134°59'1312.6
2016-Jul-14 18:31N 34°03' E 134°60'233 9.6
2016-Jul-13 18:11N 34°43' E 139°38'811.3
2016-Jul-13 17:31N 34°46' E 139°46'1111.0
2016-Jul-13 16:32N 34°52' E 139°58'1111.5
2016-Jul-13 15:33N 34°57' E 140°10'1311.6
2016-Jul-13 14:24N 35°04' E 140°24'1111.6
2016-Jul-13 13:27N 35°13' E 140°32'  
Track history (hours):
 
Tides and Currents Weather Stations Pressure Air Temp Water Temp Dewpoint Dewpoint Depression Visibility Wind Speed Wind Dir Waves Ship Positions

Ryoei Maru

Last reported at 2016-Jul-22 19:32 UTC. Time now 2016-Jul-23 16:58 UTC.
Position N 35°41' E 140°57'.

Length 95 m; draft 5 m.

Type: Cargo ship. MMSI: 431501749.

Date/timePositionNaut miles runAvg speedWind from/ knotsBaromVisibWave heightAir tempDewpointWater temp
2016-Jul-22 19:32N 35°41' E 140°57'1211.2
2016-Jul-22 18:29N 35°31' E 140°49'1112.3
2016-Jul-22 17:33N 35°22' E 140°40'1212.3
2016-Jul-22 16:33N 35°12' E 140°32'1211.9
2016-Jul-22 15:32N 35°03' E 140°22'1212.2
2016-Jul-22 14:33N 34°56' E 140°09'1812.3
2016-Jul-22 13:07N 34°48' E 139°51'24610.8
2016-Jul-21 14:16N 34°01' E 134°58'1013.2
2016-Jul-21 13:33N 34°11' E 134°59'1211.6
2016-Jul-21 12:30N 34°23' E 135°01'1212.9
2016-Jul-21 11:33N 34°31' E 135°12'1312.6
2016-Jul-21 10:33N 34°37' E 135°25'1 0.9
2016-Jul-21 09:31N 34°37' E 135°26'0 0.0
2016-Jul-21 08:19N 34°37' E 135°26'0 0.0
2016-Jul-21 07:25N 34°37' E 135°26'0 0.0
2016-Jul-21 06:25N 34°37' E 135°26'0 0.0
2016-Jul-21 05:31N 34°37' E 135°26'0 0.0
2016-Jul-21 04:31N 34°37' E 135°26'0 0.0
2016-Jul-21 03:31N 34°37' E 135°26'0 0.0
2016-Jul-21 02:31N 34°37' E 135°26'0 0.0
2016-Jul-21 00:31N 34°37' E 135°26'0 0.0
2016-Jul-20 23:19N 34°37' E 135°26'0 0.1
2016-Jul-20 22:25N 34°37' E 135°26'3 3.8
2016-Jul-20 21:33N 34°37' E 135°22'3 3.2
2016-Jul-20 20:32N 34°35' E 135°18'0 0.0
2016-Jul-20 19:32N 34°35' E 135°18'0 0.0
2016-Jul-20 18:32N 34°35' E 135°18'0 0.0
2016-Jul-20 17:26N 34°35' E 135°18'0 0.0
2016-Jul-20 16:32N 34°35' E 135°18'6 6.0
2016-Jul-20 15:33N 34°31' E 135°14'1211.8
2016-Jul-20 14:33N 34°22' E 135°04'1211.3
2016-Jul-20 13:31N 34°11' E 135°00'18010.4
2016-Jul-19 20:16N 34°32' E 138°36'4013.6
2016-Jul-19 17:19N 34°38' E 139°25'1013.2
2016-Jul-19 16:32N 34°41' E 139°36'1312.8
2016-Jul-19 15:33N 34°48' E 139°49'1312.9
2016-Jul-19 14:33N 34°54' E 140°03'1312.8
2016-Jul-19 13:31N 35°01' E 140°17'1212.1
2016-Jul-19 12:32N 35°08' E 140°29'1211.5
2016-Jul-19 11:27N 35°18' E 140°37'  
2016-Jul-16 21:08N 36°14' E 140°60'913.7
2016-Jul-16 20:29N 36°05' E 140°59'1313.6
2016-Jul-16 19:31N 35°52' E 140°58'1313.3
2016-Jul-16 18:33N 35°39' E 140°55'1414.0
2016-Jul-16 17:33N 35°28' E 140°45'1414.2
2016-Jul-16 16:33N 35°16' E 140°36'1513.7
2016-Jul-16 15:26N 35°04' E 140°24'1113.1
2016-Jul-16 14:33N 34°58' E 140°12'1413.3
2016-Jul-16 13:32N 34°51' E 139°58'1413.2
2016-Jul-16 12:27N 34°45' E 139°42'23811.4
2016-Jul-15 15:33N 34°03' E 134°59'1414.0
2016-Jul-15 14:33N 34°17' E 134°58'1313.2
2016-Jul-15 13:33N 34°27' E 135°08'1313.2
2016-Jul-15 12:33N 34°36' E 135°20'5 4.9
2016-Jul-15 11:32N 34°37' E 135°26'0 0.0
2016-Jul-15 10:32N 34°37' E 135°26'0 0.0
2016-Jul-15 09:25N 34°37' E 135°26'0 0.1
2016-Jul-15 08:31N 34°37' E 135°26'0 0.0
2016-Jul-15 06:31N 34°37' E 135°26'0 0.0
2016-Jul-15 03:31N 34°37' E 135°26'0 0.0
2016-Jul-15 01:25N 34°37' E 135°26'0 0.0
2016-Jul-15 00:19N 34°37' E 135°26'0 0.0
2016-Jul-14 23:13N 34°37' E 135°26'0 0.0
2016-Jul-14 22:31N 34°37' E 135°26'5 5.2
2016-Jul-14 21:33N 34°35' E 135°20'1312.8
2016-Jul-14 20:33N 34°26' E 135°09'1312.7
2016-Jul-14 19:33N 34°16' E 134°59'1312.6
2016-Jul-14 18:31N 34°03' E 134°60'233 9.6
2016-Jul-13 18:11N 34°43' E 139°38'811.3
2016-Jul-13 17:31N 34°46' E 139°46'1111.0
2016-Jul-13 16:32N 34°52' E 139°58'1111.5
2016-Jul-13 15:33N 34°57' E 140°10'1311.6
2016-Jul-13 14:24N 35°04' E 140°24'1111.6
2016-Jul-13 13:27N 35°13' E 140°32'  

Dump ship's entire track history